sensor_id;sensor_type;location;lat;lon;timestamp;pressure;altitude;pressure_sealevel;temperature;humidity
56198;BME280;42700;42.524;12.052;2023-04-28T00:00:27;88558.09;;;11.31;100.00
56198;BME280;42700;42.524;12.052;2023-04-28T00:02:53;88403.44;;;11.34;100.00
56198;BME280;42700;42.524;12.052;2023-04-28T00:05:18;88138.28;;;11.30;100.00
56198;BME280;42700;42.524;12.052;2023-04-28T00:07:44;87788.31;;;11.26;100.00
56198;BME280;42700;42.524;12.052;2023-04-28T00:10:09;87445.31;;;11.20;100.00
56198;BME280;42700;42.524;12.052;2023-04-28T00:12:35;87259.88;;;11.17;100.00
56198;BME280;42700;42.524;12.052;2023-04-28T00:15:00;87054.44;;;11.12;100.00
56198;BME280;42700;42.524;12.052;2023-04-28T00:17:26;86725.06;;;11.02;100.00
56198;BME280;42700;42.524;12.052;2023-04-28T00:19:51;86607.88;;;10.98;100.00
56198;BME280;42700;42.524;12.052;2023-04-28T00:22:17;86669.84;;;11.01;100.00
56198;BME280;42700;42.524;12.052;2023-04-28T00:24:43;86557.25;;;10.96;100.00
56198;BME280;42700;42.524;12.052;2023-04-28T00:27:08;86502.94;;;10.92;100.00
56198;BME280;42700;42.524;12.052;2023-04-28T00:29:34;86537.13;;;10.89;100.00
56198;BME280;42700;42.524;12.052;2023-04-28T00:32:01;86502.41;;;10.87;100.00
56198;BME280;42700;42.524;12.052;2023-04-28T00:34:26;86375.56;;;10.80;100.00
56198;BME280;42700;42.524;12.052;2023-04-28T00:36:54;86298.66;;;10.75;100.00
56198;BME280;42700;42.524;12.052;2023-04-28T00:39:19;86239.84;;;10.70;100.00
56198;BME280;42700;42.524;12.052;2023-04-28T00:41:47;86140.28;;;10.64;100.00
56198;BME280;42700;42.524;12.052;2023-04-28T00:44:12;86156.38;;;10.60;100.00
56198;BME280;42700;42.524;12.052;2023-04-28T00:46:38;86135.38;;;10.57;100.00
56198;BME280;42700;42.524;12.052;2023-04-28T00:49:03;85995.91;;;10.48;100.00
56198;BME280;42700;42.524;12.052;2023-04-28T00:51:29;86010.06;;;10.45;100.00
56198;BME280;42700;42.524;12.052;2023-04-28T00:53:57;86061.25;;;10.42;100.00
56198;BME280;42700;42.524;12.052;2023-04-28T00:56:23;86221.56;;;10.43;100.00
56198;BME280;42700;42.524;12.052;2023-04-28T00:58:48;86422.59;;;10.46;100.00
56198;BME280;42700;42.524;12.052;2023-04-28T01:01:14;86656.13;;;10.50;100.00
56198;BME280;42700;42.524;12.052;2023-04-28T01:03:40;86961.41;;;10.60;100.00
56198;BME280;42700;42.524;12.052;2023-04-28T01:06:06;87322.72;;;10.72;100.00
56198;BME280;42700;42.524;12.052;2023-04-28T01:08:32;87417.97;;;10.76;100.00
56198;BME280;42700;42.524;12.052;2023-04-28T01:10:58;87371.16;;;10.73;100.00
56198;BME280;42700;42.524;12.052;2023-04-28T01:13:24;87320.19;;;10.68;100.00
56198;BME280;42700;42.524;12.052;2023-04-28T01:15:49;87298.84;;;10.63;100.00
56198;BME280;42700;42.524;12.052;2023-04-28T01:18:15;87557.88;;;10.68;100.00
56198;BME280;42700;42.524;12.052;2023-04-28T01:20:41;87639.16;;;10.71;100.00
56198;BME280;42700;42.524;12.052;2023-04-28T01:23:13;87739.00;;;10.74;100.00
56198;BME280;42700;42.524;12.052;2023-04-28T01:25:39;88004.13;;;10.83;100.00
56198;BME280;42700;42.524;12.052;2023-04-28T01:28:04;88220.13;;;10.92;100.00
56198;BME280;42700;42.524;12.052;2023-04-28T01:30:30;88469.16;;;10.99;100.00
56198;BME280;42700;42.524;12.052;2023-04-28T01:32:55;88686.84;;;11.08;100.00
56198;BME280;42700;42.524;12.052;2023-04-28T01:35:21;88805.72;;;11.13;100.00
56198;BME280;42700;42.524;12.052;2023-04-28T01:37:46;89098.13;;;11.24;100.00
56198;BME280;42700;42.524;12.052;2023-04-28T01:40:12;89248.91;;;11.30;100.00
56198;BME280;42700;42.524;12.052;2023-04-28T01:42:37;89251.94;;;11.32;100.00
56198;BME280;42700;42.524;12.052;2023-04-28T01:45:03;89079.56;;;11.24;100.00
56198;BME280;42700;42.524;12.052;2023-04-28T01:47:29;88889.78;;;11.16;100.00
56198;BME280;42700;42.524;12.052;2023-04-28T01:49:55;88859.09;;;11.15;100.00
56198;BME280;42700;42.524;12.052;2023-04-28T01:52:21;88762.59;;;11.09;100.00
56198;BME280;42700;42.524;12.052;2023-04-28T01:54:51;88654.72;;;11.02;100.00
56198;BME280;42700;42.524;12.052;2023-04-28T01:57:16;88519.59;;;10.95;100.00
56198;BME280;42700;42.524;12.052;2023-04-28T01:59:42;88378.50;;;10.87;100.00
56198;BME280;42700;42.524;12.052;2023-04-28T02:02:07;88239.31;;;10.79;100.00
56198;BME280;42700;42.524;12.052;2023-04-28T02:04:33;88175.03;;;10.75;100.00
56198;BME280;42700;42.524;12.052;2023-04-28T02:06:58;88112.31;;;10.68;100.00
56198;BME280;42700;42.524;12.052;2023-04-28T02:09:24;88091.53;;;10.67;100.00
56198;BME280;42700;42.524;12.052;2023-04-28T02:11:49;87977.78;;;10.60;100.00
56198;BME280;42700;42.524;12.052;2023-04-28T02:14:15;87847.81;;;10.50;100.00
56198;BME280;42700;42.524;12.052;2023-04-28T02:16:41;87757.94;;;10.43;100.00
56198;BME280;42700;42.524;12.052;2023-04-28T02:19:06;87868.44;;;10.43;100.00
56198;BME280;42700;42.524;12.052;2023-04-28T02:21:32;88152.78;;;10.52;100.00
56198;BME280;42700;42.524;12.052;2023-04-28T02:23:57;88445.53;;;10.61;100.00
56198;BME280;42700;42.524;12.052;2023-04-28T02:26:23;88378.94;;;10.59;100.00
56198;BME280;42700;42.524;12.052;2023-04-28T02:28:48;88298.03;;;10.54;100.00
56198;BME280;42700;42.524;12.052;2023-04-28T02:31:14;88219.44;;;10.47;100.00
56198;BME280;42700;42.524;12.052;2023-04-28T02:33:39;88145.41;;;10.40;100.00
56198;BME280;42700;42.524;12.052;2023-04-28T02:36:06;88088.78;;;10.34;100.00
56198;BME280;42700;42.524;12.052;2023-04-28T02:38:32;88091.88;;;10.29;100.00
56198;BME280;42700;42.524;12.052;2023-04-28T02:40:59;88029.97;;;10.23;100.00
56198;BME280;42700;42.524;12.052;2023-04-28T02:43:25;87985.44;;;10.18;100.00
56198;BME280;42700;42.524;12.052;2023-04-28T02:45:51;87973.88;;;10.11;100.00
56198;BME280;42700;42.524;12.052;2023-04-28T02:48:17;87999.97;;;10.09;100.00
56198;BME280;42700;42.524;12.052;2023-04-28T02:50:43;88034.06;;;10.07;100.00
56198;BME280;42700;42.524;12.052;2023-04-28T02:53:10;87993.69;;;10.03;100.00
56198;BME280;42700;42.524;12.052;2023-04-28T02:55:36;88009.22;;;10.01;100.00
56198;BME280;42700;42.524;12.052;2023-04-28T02:58:01;88185.34;;;10.06;100.00
56198;BME280;42700;42.524;12.052;2023-04-28T03:00:27;88248.88;;;10.06;100.00
56198;BME280;42700;42.524;12.052;2023-04-28T03:02:52;88349.06;;;10.07;100.00
56198;BME280;42700;42.524;12.052;2023-04-28T03:05:18;88371.41;;;10.06;100.00
56198;BME280;42700;42.524;12.052;2023-04-28T03:07:44;88358.59;;;10.01;100.00
56198;BME280;42700;42.524;12.052;2023-04-28T03:10:11;88190.13;;;9.91;100.00
56198;BME280;42700;42.524;12.052;2023-04-28T03:12:37;88132.03;;;9.84;100.00
56198;BME280;42700;42.524;12.052;2023-04-28T03:15:02;88174.03;;;9.82;100.00
56198;BME280;42700;42.524;12.052;2023-04-28T03:17:28;88222.81;;;9.81;100.00
56198;BME280;42700;42.524;12.052;2023-04-28T03:19:53;88227.41;;;9.76;100.00
56198;BME280;42700;42.524;12.052;2023-04-28T03:22:19;88296.19;;;9.76;100.00
56198;BME280;42700;42.524;12.052;2023-04-28T03:24:45;88336.69;;;9.73;100.00
56198;BME280;42700;42.524;12.052;2023-04-28T03:27:11;88450.78;;;9.75;100.00
56198;BME280;42700;42.524;12.052;2023-04-28T03:29:36;88662.03;;;9.81;100.00
56198;BME280;42700;42.524;12.052;2023-04-28T03:32:01;88685.84;;;9.81;100.00
56198;BME280;42700;42.524;12.052;2023-04-28T03:34:27;88755.78;;;9.79;100.00
56198;BME280;42700;42.524;12.052;2023-04-28T03:36:52;88909.28;;;9.83;100.00
56198;BME280;42700;42.524;12.052;2023-04-28T03:39:18;89043.88;;;9.85;100.00
56198;BME280;42700;42.524;12.052;2023-04-28T03:41:43;89138.00;;;9.86;100.00
56198;BME280;42700;42.524;12.052;2023-04-28T03:44:09;89289.63;;;9.90;100.00
56198;BME280;42700;42.524;12.052;2023-04-28T03:46:34;89415.94;;;9.93;100.00
56198;BME280;42700;42.524;12.052;2023-04-28T03:49:00;89450.34;;;9.93;100.00
56198;BME280;42700;42.524;12.052;2023-04-28T03:51:26;89440.88;;;9.88;100.00
56198;BME280;42700;42.524;12.052;2023-04-28T03:53:53;89470.00;;;9.85;100.00
56198;BME280;42700;42.524;12.052;2023-04-28T03:56:18;89516.47;;;9.82;100.00
56198;BME280;42700;42.524;12.052;2023-04-28T03:58:44;89496.78;;;9.79;100.00
56198;BME280;42700;42.524;12.052;2023-04-28T04:01:10;89636.34;;;9.83;100.00
56198;BME280;42700;42.524;12.052;2023-04-28T04:03:36;89589.78;;;9.78;100.00
56198;BME280;42700;42.524;12.052;2023-04-28T04:06:02;89631.41;;;9.77;100.00
56198;BME280;42700;42.524;12.052;2023-04-28T04:08:27;89567.09;;;9.73;100.00
56198;BME280;42700;42.524;12.052;2023-04-28T04:10:53;89548.16;;;9.68;100.00
56198;BME280;42700;42.524;12.052;2023-04-28T04:13:20;89511.09;;;9.64;100.00
56198;BME280;42700;42.524;12.052;2023-04-28T04:15:45;89578.34;;;9.63;100.00
56198;BME280;42700;42.524;12.052;2023-04-28T04:18:11;89251.03;;;9.60;100.00
56198;BME280;42700;42.524;12.052;2023-04-28T04:20:37;89092.28;;;9.56;100.00
56198;BME280;42700;42.524;12.052;2023-04-28T04:23:03;89486.09;;;9.58;100.00
56198;BME280;42700;42.524;12.052;2023-04-28T04:25:29;89462.69;;;9.60;100.00
56198;BME280;42700;42.524;12.052;2023-04-28T04:27:54;89270.69;;;9.59;100.00
56198;BME280;42700;42.524;12.052;2023-04-28T04:30:20;89249.13;;;9.64;100.00
56198;BME280;42700;42.524;12.052;2023-04-28T04:32:45;89339.09;;;9.71;100.00
56198;BME280;42700;42.524;12.052;2023-04-28T04:35:11;89497.19;;;9.82;100.00
56198;BME280;42700;42.524;12.052;2023-04-28T04:37:36;89593.63;;;9.88;100.00
56198;BME280;42700;42.524;12.052;2023-04-28T04:40:02;89540.69;;;9.84;100.00
56198;BME280;42700;42.524;12.052;2023-04-28T04:42:28;89696.50;;;9.86;100.00
56198;BME280;42700;42.524;12.052;2023-04-28T04:44:53;89810.72;;;9.88;100.00
56198;BME280;42700;42.524;12.052;2023-04-28T04:47:19;90103.97;;;9.98;100.00
56198;BME280;42700;42.524;12.052;2023-04-28T04:49:46;90397.31;;;10.08;100.00
56198;BME280;42700;42.524;12.052;2023-04-28T04:52:11;90772.22;;;10.22;100.00
56198;BME280;42700;42.524;12.052;2023-04-28T04:54:37;91142.81;;;10.36;100.00
56198;BME280;42700;42.524;12.052;2023-04-28T04:57:02;91483.94;;;10.47;100.00
56198;BME280;42700;42.524;12.052;2023-04-28T04:59:28;91775.66;;;10.60;100.00
56198;BME280;42700;42.524;12.052;2023-04-28T05:01:54;92008.81;;;10.65;100.00
56198;BME280;42700;42.524;12.052;2023-04-28T05:04:19;92266.38;;;10.72;100.00
56198;BME280;42700;42.524;12.052;2023-04-28T05:06:45;92571.19;;;10.82;100.00
56198;BME280;42700;42.524;12.052;2023-04-28T05:09:10;92908.44;;;10.95;100.00
56198;BME280;42700;42.524;12.052;2023-04-28T05:11:36;93248.19;;;11.08;100.00
56198;BME280;42700;42.524;12.052;2023-04-28T05:14:01;93546.44;;;11.23;100.00
56198;BME280;42700;42.524;12.052;2023-04-28T05:16:27;93951.59;;;11.39;100.00
56198;BME280;42700;42.524;12.052;2023-04-28T05:18:52;94429.53;;;11.61;100.00
56198;BME280;42700;42.524;12.052;2023-04-28T05:21:18;94715.59;;;11.78;100.00
56198;BME280;42700;42.524;12.052;2023-04-28T05:23:44;94928.94;;;11.90;100.00
56198;BME280;42700;42.524;12.052;2023-04-28T05:26:09;95214.75;;;12.05;100.00
56198;BME280;42700;42.524;12.052;2023-04-28T05:28:35;95607.22;;;12.24;100.00
56198;BME280;42700;42.524;12.052;2023-04-28T05:31:00;95935.25;;;12.43;100.00
56198;BME280;42700;42.524;12.052;2023-04-28T05:33:26;96223.97;;;12.59;100.00
56198;BME280;42700;42.524;12.052;2023-04-28T05:35:51;96388.31;;;12.70;100.00
56198;BME280;42700;42.524;12.052;2023-04-28T05:38:17;96657.84;;;12.86;100.00
56198;BME280;42700;42.524;12.052;2023-04-28T05:40:43;96828.75;;;12.96;100.00
56198;BME280;42700;42.524;12.052;2023-04-28T05:43:08;97203.69;;;13.16;100.00
56198;BME280;42700;42.524;12.052;2023-04-28T05:45:34;97566.19;;;13.37;100.00
56198;BME280;42700;42.524;12.052;2023-04-28T05:47:59;98074.94;;;13.65;100.00
56198;BME280;42700;42.524;12.052;2023-04-28T05:50:26;98785.22;;;14.01;100.00
56198;BME280;42700;42.524;12.052;2023-04-28T05:52:52;99320.38;;;14.35;100.00
56198;BME280;42700;42.524;12.052;2023-04-28T05:55:17;99680.22;;;14.62;100.00
56198;BME280;42700;42.524;12.052;2023-04-28T05:57:43;99644.41;;;14.73;100.00
56198;BME280;42700;42.524;12.052;2023-04-28T06:00:08;99789.78;;;14.90;100.00
56198;BME280;42700;42.524;12.052;2023-04-28T06:02:34;99878.38;;;15.05;100.00
56198;BME280;42700;42.524;12.052;2023-04-28T06:05:00;100252.94;;;15.24;100.00
56198;BME280;42700;42.524;12.052;2023-04-28T06:07:26;100530.50;;;15.43;100.00
56198;BME280;42700;42.524;12.052;2023-04-28T06:09:51;100860.69;;;15.65;100.00
56198;BME280;42700;42.524;12.052;2023-04-28T06:12:16;101332.69;;;15.93;100.00
56198;BME280;42700;42.524;12.052;2023-04-28T06:14:42;101340.50;;;16.07;100.00
56198;BME280;42700;42.524;12.052;2023-04-28T06:17:08;101599.97;;;16.26;100.00
56198;BME280;42700;42.524;12.052;2023-04-28T06:19:33;101545.84;;;16.32;100.00
56198;BME280;42700;42.524;12.052;2023-04-28T06:21:59;101528.19;;;16.41;100.00
56198;BME280;42700;42.524;12.052;2023-04-28T06:24:24;101715.66;;;16.57;100.00
56198;BME280;42700;42.524;12.052;2023-04-28T06:26:49;102245.63;;;16.90;100.00
56198;BME280;42700;42.524;12.052;2023-04-28T06:29:15;102124.13;;;16.99;100.00
56198;BME280;42700;42.524;12.052;2023-04-28T06:31:40;102357.00;;;17.23;100.00
56198;BME280;42700;42.524;12.052;2023-04-28T06:34:06;102625.03;;;17.46;100.00
56198;BME280;42700;42.524;12.052;2023-04-28T06:36:31;102625.28;;;17.56;100.00
56198;BME280;42700;42.524;12.052;2023-04-28T06:38:57;103004.03;;;17.75;100.00
56198;BME280;42700;42.524;12.052;2023-04-28T06:41:23;103492.94;;;18.02;100.00
56198;BME280;42700;42.524;12.052;2023-04-28T06:43:48;103457.38;;;18.13;100.00
56198;BME280;42700;42.524;12.052;2023-04-28T06:46:15;103651.22;;;18.27;100.00
56198;BME280;42700;42.524;12.052;2023-04-28T06:48:40;103615.84;;;18.35;100.00
56198;BME280;42700;42.524;12.052;2023-04-28T06:51:06;103786.53;;;18.48;100.00
56198;BME280;42700;42.524;12.052;2023-04-28T06:53:31;103855.91;;;18.60;100.00
56198;BME280;42700;42.524;12.052;2023-04-28T06:55:57;103866.28;;;18.68;100.00
56198;BME280;42700;42.524;12.052;2023-04-28T06:58:23;104622.81;;;19.01;100.00
56198;BME280;42700;42.524;12.052;2023-04-28T07:00:48;104628.69;;;19.11;100.00
56198;BME280;42700;42.524;12.052;2023-04-28T07:03:14;104855.44;;;19.27;100.00
56198;BME280;42700;42.524;12.052;2023-04-28T07:05:39;104759.88;;;19.34;100.00
56198;BME280;42700;42.524;12.052;2023-04-28T07:08:05;105060.38;;;19.52;100.00
56198;BME280;42700;42.524;12.052;2023-04-28T07:10:30;105154.34;;;19.64;100.00
56198;BME280;42700;42.524;12.052;2023-04-28T07:12:56;105510.06;;;19.83;100.00
56198;BME280;42700;42.524;12.052;2023-04-28T07:15:21;105472.91;;;19.91;100.00
56198;BME280;42700;42.524;12.052;2023-04-28T07:17:48;105397.06;;;19.97;100.00
56198;BME280;42700;42.524;12.052;2023-04-28T07:20:13;105219.84;;;19.96;100.00
56198;BME280;42700;42.524;12.052;2023-04-28T07:22:39;105042.59;;;19.95;100.00
56198;BME280;42700;42.524;12.052;2023-04-28T07:25:04;105636.78;;;20.17;100.00
56198;BME280;42700;42.524;12.052;2023-04-28T07:27:30;105608.69;;;20.23;100.00
56198;BME280;42700;42.524;12.052;2023-04-28T07:29:56;105617.53;;;20.28;100.00
56198;BME280;42700;42.524;12.052;2023-04-28T07:32:21;106164.56;;;20.51;100.00
56198;BME280;42700;42.524;12.052;2023-04-28T07:34:48;106196.81;;;20.57;100.00
56198;BME280;42700;42.524;12.052;2023-04-28T07:37:13;106193.94;;;20.66;100.00
56198;BME280;42700;42.524;12.052;2023-04-28T07:39:39;105970.41;;;20.68;100.00
56198;BME280;42700;42.524;12.052;2023-04-28T07:42:05;106318.78;;;20.83;100.00
56198;BME280;42700;42.524;12.052;2023-04-28T07:44:31;106023.19;;;20.81;100.00
56198;BME280;42700;42.524;12.052;2023-04-28T07:46:57;106605.06;;;21.05;100.00
56198;BME280;42700;42.524;12.052;2023-04-28T07:49:23;106836.63;;;21.17;100.00
56198;BME280;42700;42.524;12.052;2023-04-28T07:51:48;107337.09;;;21.37;100.00
56198;BME280;42700;42.524;12.052;2023-04-28T07:54:15;107334.28;;;21.45;100.00
56198;BME280;42700;42.524;12.052;2023-04-28T07:56:40;107951.66;;;21.68;100.00
56198;BME280;42700;42.524;12.052;2023-04-28T07:59:06;107609.47;;;21.63;100.00
56198;BME280;42700;42.524;12.052;2023-04-28T08:01:31;107728.63;;;21.69;100.00
56198;BME280;42700;42.524;12.052;2023-04-28T08:03:57;109045.84;;;22.06;100.00
56198;BME280;42700;42.524;12.052;2023-04-28T08:06:22;109397.66;;;22.19;100.00
56198;BME280;42700;42.524;12.052;2023-04-28T08:08:48;109648.38;;;22.30;100.00
56198;BME280;42700;42.524;12.052;2023-04-28T08:11:14;110012.34;;;22.46;100.00
56198;BME280;42700;42.524;12.052;2023-04-28T08:13:39;109833.25;;;22.46;94.14
56198;BME280;42700;42.524;12.052;2023-04-28T08:16:05;109949.38;;;22.59;97.11
56198;BME280;42700;42.524;12.052;2023-04-28T08:18:30;109647.28;;;22.63;94.54
56198;BME280;42700;42.524;12.052;2023-04-28T08:20:56;110037.75;;;22.83;93.76
56198;BME280;42700;42.524;12.052;2023-04-28T08:23:21;109874.19;;;22.93;93.22
56198;BME280;42700;42.524;12.052;2023-04-28T08:25:48;109582.81;;;22.97;89.18
56198;BME280;42700;42.524;12.052;2023-04-28T08:28:14;110012.53;;;23.22;89.68
56198;BME280;42700;42.524;12.052;2023-04-28T08:30:39;110083.63;;;23.40;87.27
56198;BME280;42700;42.524;12.052;2023-04-28T08:33:05;109523.88;;;23.44;86.48
56198;BME280;42700;42.524;12.052;2023-04-28T08:35:30;109148.94;;;23.50;85.75
56198;BME280;42700;42.524;12.052;2023-04-28T08:37:56;108985.09;;;23.60;84.69
56198;BME280;42700;42.524;12.052;2023-04-28T08:40:22;109245.34;;;23.86;84.16
56198;BME280;42700;42.524;12.052;2023-04-28T08:42:48;108585.59;;;23.88;83.17
56198;BME280;42700;42.524;12.052;2023-04-28T08:45:14;108950.00;;;24.16;82.32
56198;BME280;42700;42.524;12.052;2023-04-28T08:47:40;108295.41;;;24.24;79.89
56198;BME280;42700;42.524;12.052;2023-04-28T08:50:10;107458.56;;;24.27;78.90
56198;BME280;42700;42.524;12.052;2023-04-28T08:52:36;106320.34;;;24.23;77.29
56198;BME280;42700;42.524;12.052;2023-04-28T08:55:09;104697.00;;;24.05;75.86
56198;BME280;42700;42.524;12.052;2023-04-28T08:57:39;104386.25;;;24.21;72.72
56198;BME280;42700;42.524;12.052;2023-04-28T09:00:06;104109.72;;;24.37;69.34
56198;BME280;42700;42.524;12.052;2023-04-28T09:02:32;103603.00;;;24.53;69.37
56198;BME280;42700;42.524;12.052;2023-04-28T09:04:57;102626.38;;;24.54;68.90
56198;BME280;42700;42.524;12.052;2023-04-28T09:07:23;101516.84;;;24.46;66.27
56198;BME280;42700;42.524;12.052;2023-04-28T09:09:48;101031.44;;;24.55;66.45
56198;BME280;42700;42.524;12.052;2023-04-28T09:12:14;101427.38;;;24.84;64.69
56198;BME280;42700;42.524;12.052;2023-04-28T09:14:40;100264.06;;;24.79;64.65
56198;BME280;42700;42.524;12.052;2023-04-28T09:17:09;100300.25;;;25.00;62.67
56198;BME280;42700;42.524;12.052;2023-04-28T09:19:36;100415.69;;;25.24;64.09
56198;BME280;42700;42.524;12.052;2023-04-28T09:22:02;100557.19;;;25.44;61.58
56198;BME280;42700;42.524;12.052;2023-04-28T09:24:38;100132.03;;;25.50;60.19
56198;BME280;42700;42.524;12.052;2023-04-28T09:27:05;99114.13;;;25.50;60.39
56198;BME280;42700;42.524;12.052;2023-04-28T09:29:32;98930.84;;;25.63;61.08
56198;BME280;42700;42.524;12.052;2023-04-28T09:32:40;98483.81;;;25.64;61.20
56198;BME280;42700;42.524;12.052;2023-04-28T09:37:15;98339.81;;;25.79;60.05
56198;BME280;42700;42.524;12.052;2023-04-28T09:39:43;99673.91;;;26.20;60.16
56198;BME280;42700;42.524;12.052;2023-04-28T09:42:08;100261.22;;;26.45;58.37
56198;BME280;42700;42.524;12.052;2023-04-28T09:44:34;99435.25;;;26.38;58.54
56198;BME280;42700;42.524;12.052;2023-04-28T09:46:59;96691.84;;;25.84;59.54
56198;BME280;42700;42.524;12.052;2023-04-28T09:49:25;98687.25;;;26.33;58.39
56198;BME280;42700;42.524;12.052;2023-04-28T09:51:51;97076.41;;;26.02;57.64
56198;BME280;42700;42.524;12.052;2023-04-28T09:54:16;95012.34;;;25.62;57.88
56198;BME280;42700;42.524;12.052;2023-04-28T09:56:43;95071.44;;;25.65;58.22
56198;BME280;42700;42.524;12.052;2023-04-28T09:59:11;98364.22;;;26.44;58.11
56198;BME280;42700;42.524;12.052;2023-04-28T10:01:39;97436.09;;;26.23;57.93
56198;BME280;42700;42.524;12.052;2023-04-28T10:04:05;96017.81;;;25.96;58.41
56198;BME280;42700;42.524;12.052;2023-04-28T10:06:34;95712.34;;;25.92;58.98
56198;BME280;42700;42.524;12.052;2023-04-28T10:09:02;97868.75;;;26.39;58.79
56198;BME280;42700;42.524;12.052;2023-04-28T10:11:29;96507.66;;;26.04;58.96
56198;BME280;42700;42.524;12.052;2023-04-28T10:13:54;97331.66;;;26.19;60.57
56198;BME280;42700;42.524;12.052;2023-04-28T10:16:21;96414.59;;;25.93;60.89
56198;BME280;42700;42.524;12.052;2023-04-28T10:18:46;97662.53;;;26.15;61.64
56198;BME280;42700;42.524;12.052;2023-04-28T10:21:14;98563.91;;;26.27;62.93
56198;BME280;42700;42.524;12.052;2023-04-28T10:26:11;99489.00;;;26.30;69.55
56198;BME280;42700;42.524;12.052;2023-04-28T10:28:47;102509.50;;;26.75;68.26
56198;BME280;42700;42.524;12.052;2023-04-28T10:31:13;95890.06;;;24.99;70.32
56198;BME280;42700;42.524;12.052;2023-04-28T10:33:40;95779.38;;;24.78;74.55
56198;BME280;42700;42.524;12.052;2023-04-28T10:36:05;105188.91;;;26.59;75.32
56198;BME280;42700;42.524;12.052;2023-04-28T10:38:31;109975.03;;;27.41;73.97
56198;BME280;42700;42.524;12.052;2023-04-28T10:40:57;110926.88;;;27.48;72.99
56198;BME280;42700;42.524;12.052;2023-04-28T10:56:15;114916.91;;;28.27;75.92
56198;BME280;42700;42.524;12.052;2023-04-28T10:58:43;116367.69;;;28.58;76.14
56198;BME280;42700;42.524;12.052;2023-04-28T11:03:56;116660.63;;;28.61;76.78
56198;BME280;42700;42.524;12.052;2023-04-28T11:06:27;118074.31;;;28.93;77.02
56198;BME280;42700;42.524;12.052;2023-04-28T11:09:00;119611.69;;;29.31;76.93
56198;BME280;42700;42.524;12.052;2023-04-28T11:13:52;119644.81;;;29.38;78.66
56198;BME280;42700;42.524;12.052;2023-04-28T11:16:22;118646.47;;;29.13;79.69
56198;BME280;42700;42.524;12.052;2023-04-28T11:18:52;119079.50;;;29.18;79.88
56198;BME280;42700;42.524;12.052;2023-04-28T11:21:18;118985.78;;;29.10;78.37
56198;BME280;42700;42.524;12.052;2023-04-28T11:23:44;119517.69;;;29.20;80.03
56198;BME280;42700;42.524;12.052;2023-04-28T11:26:09;119718.03;;;29.24;80.39
56198;BME280;42700;42.524;12.052;2023-04-28T11:28:35;119053.81;;;29.05;80.10
56198;BME280;42700;42.524;12.052;2023-04-28T11:33:37;121997.47;;;29.71;80.01
56198;BME280;42700;42.524;12.052;2023-04-28T11:36:03;124066.72;;;30.23;80.29
56198;BME280;42700;42.524;12.052;2023-04-28T11:38:29;119418.28;;;29.17;81.34
56198;BME280;42700;42.524;12.052;2023-04-28T11:40:57;115220.91;;;28.12;78.22
56198;BME280;42700;42.524;12.052;2023-04-28T11:43:29;118097.50;;;28.80;82.37
56198;BME280;42700;42.524;12.052;2023-04-28T11:45:54;117249.56;;;28.51;82.48
56198;BME280;42700;42.524;12.052;2023-04-28T11:48:21;108226.69;;;26.27;79.90
56198;BME280;42700;42.524;12.052;2023-04-28T11:50:46;115688.00;;;27.94;84.32
56198;BME280;42700;42.524;12.052;2023-04-28T11:53:12;118011.34;;;28.35;84.19
56198;BME280;42700;42.524;12.052;2023-04-28T11:55:37;116987.25;;;28.03;83.89
56198;BME280;42700;42.524;12.052;2023-04-28T12:01:05;119471.31;;;28.53;83.61
56198;BME280;42700;42.524;12.052;2023-04-28T12:03:31;120679.66;;;28.82;83.39
56198;BME280;42700;42.524;12.052;2023-04-28T12:05:56;121418.81;;;29.03;83.61
56198;BME280;42700;42.524;12.052;2023-04-28T12:08:28;122389.84;;;29.30;83.04
56198;BME280;42700;42.524;12.052;2023-04-28T12:11:06;122573.13;;;29.39;80.77
56198;BME280;42700;42.524;12.052;2023-04-28T12:13:33;125567.94;;;30.22;82.66
56198;BME280;42700;42.524;12.052;2023-04-28T12:16:00;127329.69;;;30.75;82.11
56198;BME280;42700;42.524;12.052;2023-04-28T12:18:28;128099.22;;;31.06;81.43
56198;BME280;42700;42.524;12.052;2023-04-28T12:20:53;127906.81;;;31.20;80.17
56198;BME280;42700;42.524;12.052;2023-04-28T12:23:32;128347.63;;;31.46;79.53
56198;BME280;42700;42.524;12.052;2023-04-28T12:25:57;128370.06;;;31.68;79.18
56198;BME280;42700;42.524;12.052;2023-04-28T12:28:23;129918.91;;;32.23;77.97
56198;BME280;42700;42.524;12.052;2023-04-28T12:31:02;129490.34;;;32.31;74.32
56198;BME280;42700;42.524;12.052;2023-04-28T12:33:28;129065.69;;;32.50;74.92
56198;BME280;42700;42.524;12.052;2023-04-28T12:35:57;128506.75;;;32.59;73.82
56198;BME280;42700;42.524;12.052;2023-04-28T12:38:23;128340.63;;;32.76;72.09
56198;BME280;42700;42.524;12.052;2023-04-28T12:40:48;127782.25;;;32.87;71.70
56198;BME280;42700;42.524;12.052;2023-04-28T12:43:14;127261.00;;;32.92;71.51
56198;BME280;42700;42.524;12.052;2023-04-28T12:45:39;122789.25;;;32.02;68.91
56198;BME280;42700;42.524;12.052;2023-04-28T12:48:05;118047.56;;;31.01;69.81
56198;BME280;42700;42.524;12.052;2023-04-28T12:50:31;120744.94;;;31.62;70.05
56198;BME280;42700;42.524;12.052;2023-04-28T12:52:57;120841.19;;;31.66;70.59
56198;BME280;42700;42.524;12.052;2023-04-28T12:55:23;121471.47;;;31.83;69.93
56198;BME280;42700;42.524;12.052;2023-04-28T12:57:48;120745.31;;;31.71;69.38
56198;BME280;42700;42.524;12.052;2023-04-28T13:00:14;122428.81;;;32.15;68.87
56198;BME280;42700;42.524;12.052;2023-04-28T13:02:40;121890.31;;;32.11;68.72